Time;durP1;ratioP1;P1;durP2;ratioP2;P2;SDS_P1;SDS_P2;PMS_P1;PMS_P2;Temp;Humidity;BMP_temperature;BMP_pressure;BME280_temperature;BME280_humidity;BME280_pressure;Samples;Min_cycle;Max_cycle;Signal;HPM_P1;HPM_P2
2022/01/04 00:01:20;;;;;;;78.68;19.02;;;7.60;99.90;;;;;;5091691;28;20390;-72
2022/01/04 00:03:46;;;;;;;83.60;19.17;;;7.60;99.90;;;;;;5095290;28;20545;-70
2022/01/04 00:06:12;;;;;;;78.63;19.42;;;7.50;99.90;;;;;;5082765;28;20044;-71
2022/01/04 00:08:38;;;;;;;78.57;21.15;;;7.50;99.90;;;;;;5087840;28;20139;-71
2022/01/04 00:11:14;;;;;;;77.20;18.23;;;7.60;99.90;;;;;;5096528;28;20031;-70
2022/01/04 00:13:40;;;;;;;81.90;18.77;;;7.60;99.90;;;;;;5083167;28;20103;-72
2022/01/04 00:16:07;;;;;;;80.97;20.42;;;7.60;99.90;;;;;;5077925;28;20716;-71
2022/01/04 00:18:33;;;;;;;80.15;19.15;;;7.60;99.90;;;;;;5085489;28;20841;-71
2022/01/04 00:20:59;;;;;;;67.25;17.05;;;7.60;99.90;;;;;;5070893;28;20036;-71
2022/01/04 00:23:26;;;;;;;85.78;19.58;;;7.60;99.90;;;;;;5085565;28;20467;-70
2022/01/04 00:25:51;;;;;;;76.97;19.23;;;7.50;99.90;;;;;;5081500;28;20414;-73
2022/01/04 00:28:17;;;;;;;81.15;18.23;;;7.50;99.90;;;;;;5089410;28;20035;-70
2022/01/04 00:30:43;;;;;;;89.97;20.35;;;7.50;99.90;;;;;;5085508;28;20044;-70
2022/01/04 00:33:12;;;;;;;72.97;19.02;;;7.50;99.90;;;;;;5083537;28;20065;-70
2022/01/04 00:35:38;;;;;;;86.18;21.35;;;7.50;99.90;;;;;;5080798;28;20032;-72
2022/01/04 00:38:04;;;;;;;70.28;16.60;;;7.40;99.90;;;;;;5086356;28;20052;-70
2022/01/04 00:40:31;;;;;;;81.47;19.55;;;7.50;99.90;;;;;;5089061;28;20041;-71
2022/01/04 00:42:58;;;;;;;71.05;18.63;;;7.50;99.90;;;;;;5087023;28;20078;-71
2022/01/04 00:45:25;;;;;;;76.30;18.45;;;7.50;99.90;;;;;;5087776;28;20044;-69
2022/01/04 00:50:20;;;;;;;91.32;19.33;;;7.50;99.90;;;;;;5083515;28;20509;-71
2022/01/04 00:52:45;;;;;;;98.80;21.23;;;7.50;99.90;;;;;;5095196;28;20075;-69
2022/01/04 00:55:11;;;;;;;81.55;18.70;;;7.50;99.90;;;;;;5087655;28;20068;-68
2022/01/04 00:57:37;;;;;;;78.68;21.05;;;7.50;99.90;;;;;;5089143;28;20072;-72
2022/01/04 01:00:05;;;;;;;85.28;20.95;;;7.50;99.90;;;;;;5083157;28;20032;-72
2022/01/04 01:02:31;;;;;;;88.22;19.90;;;7.50;99.90;;;;;;5074394;28;20213;-71
2022/01/04 01:04:56;;;;;;;83.80;20.48;;;7.50;99.90;;;;;;5086908;28;20114;-68
2022/01/04 01:07:22;;;;;;;103.45;22.42;;;7.50;99.90;;;;;;5083921;28;20037;-71
2022/01/04 01:10:49;;;;;;;88.97;19.90;;;7.50;99.90;;;;;;5088106;28;20044;-72
2022/01/04 01:12:42;;;;;;;98.82;21.55;;;7.50;99.90;;;;;;5071353;28;20583;-72
2022/01/04 01:15:09;;;;;;;86.10;21.17;;;7.50;99.90;;;;;;5083790;28;20090;-70
2022/01/04 01:17:35;;;;;;;96.05;21.58;;;7.50;99.90;;;;;;5068563;28;20496;-71
2022/01/04 01:20:02;;;;;;;92.95;21.75;;;7.50;99.90;;;;;;5071263;28;20039;-70
2022/01/04 01:22:28;;;;;;;99.13;21.17;;;7.50;99.90;;;;;;5089135;28;20036;-69
2022/01/04 01:24:53;;;;;;;96.47;21.27;;;7.50;99.90;;;;;;5089189;28;20543;-71
2022/01/04 01:27:19;;;;;;;101.20;23.83;;;7.40;99.90;;;;;;5082402;28;20036;-72
2022/01/04 01:29:44;;;;;;;117.82;24.50;;;7.50;99.90;;;;;;5086351;28;20040;-72
2022/01/04 01:32:10;;;;;;;92.00;24.45;;;7.50;99.90;;;;;;5087115;28;20373;-71
2022/01/04 01:34:36;;;;;;;106.82;23.95;;;7.40;99.90;;;;;;5089334;28;20059;-72
2022/01/04 01:37:02;;;;;;;99.50;24.50;;;7.50;99.90;;;;;;5084587;28;20067;-73
2022/01/04 01:39:27;;;;;;;94.65;23.15;;;7.50;99.90;;;;;;5087520;28;20095;-72
2022/01/04 01:41:53;;;;;;;104.25;23.58;;;7.40;99.90;;;;;;5104091;28;20063;-73
2022/01/04 01:44:20;;;;;;;102.18;23.77;;;7.50;99.90;;;;;;5098369;28;20080;-70
2022/01/04 01:46:45;;;;;;;104.75;23.50;;;7.40;99.90;;;;;;5078490;28;20136;-69
2022/01/04 01:49:11;;;;;;;97.65;22.75;;;7.50;99.90;;;;;;5086754;28;20131;-71
2022/01/04 01:51:37;;;;;;;103.38;25.38;;;7.60;99.90;;;;;;5095389;28;20081;-70
2022/01/04 01:54:02;;;;;;;111.18;24.10;;;7.60;99.90;;;;;;5086633;28;20036;-71
2022/01/04 01:56:29;;;;;;;105.13;24.50;;;7.60;99.90;;;;;;5095628;28;20036;-69
2022/01/04 01:58:55;;;;;;;112.75;26.17;;;7.60;99.90;;;;;;5085605;28;20139;-72
2022/01/04 02:01:22;;;;;;;103.18;23.48;;;7.60;99.90;;;;;;5088359;28;20051;-72
2022/01/04 02:03:47;;;;;;;105.40;24.05;;;7.50;99.90;;;;;;5088015;28;20040;-72
2022/01/04 02:06:13;;;;;;;125.13;25.60;;;7.60;99.90;;;;;;5098794;28;20040;-72
2022/01/04 02:08:38;;;;;;;93.50;22.23;;;7.60;99.90;;;;;;5090252;28;20039;-71
2022/01/04 02:11:05;;;;;;;102.47;26.70;;;7.60;99.90;;;;;;5096058;28;20044;-71
2022/01/04 02:13:30;;;;;;;99.88;24.40;;;7.60;99.90;;;;;;5088729;28;20097;-72
2022/01/04 02:15:57;;;;;;;96.03;23.17;;;7.70;99.90;;;;;;5090688;28;20044;-69
2022/01/04 02:18:22;;;;;;;112.88;25.35;;;7.60;99.90;;;;;;5090530;28;20047;-73
2022/01/04 02:20:48;;;;;;;113.95;27.55;;;7.60;99.90;;;;;;5089527;28;20035;-71
2022/01/04 02:23:14;;;;;;;104.40;25.90;;;7.60;99.90;;;;;;5083215;28;20071;-70
2022/01/04 02:25:40;;;;;;;113.80;24.98;;;7.60;99.90;;;;;;5088377;28;20126;-72
2022/01/04 02:28:06;;;;;;;103.00;25.42;;;7.60;99.90;;;;;;5084917;28;20037;-70
2022/01/04 02:30:32;;;;;;;107.60;24.00;;;7.60;99.90;;;;;;5078806;28;20036;-72
2022/01/04 02:32:59;;;;;;;107.05;24.38;;;7.70;99.90;;;;;;5092281;28;20072;-69
2022/01/04 02:35:27;;;;;;;107.35;26.30;;;7.70;99.90;;;;;;5098165;28;20055;-72
2022/01/04 02:37:58;;;;;;;104.25;24.52;;;7.80;99.90;;;;;;5096740;28;20487;-74
2022/01/04 02:40:24;;;;;;;109.47;27.30;;;7.80;99.90;;;;;;5090554;28;20094;-72
2022/01/04 02:42:50;;;;;;;105.10;23.33;;;7.80;99.90;;;;;;5071632;28;20445;-73
2022/01/04 02:45:16;;;;;;;123.68;25.67;;;7.80;99.90;;;;;;5093801;28;20495;-72
2022/01/04 02:47:42;;;;;;;124.20;27.35;;;7.80;99.90;;;;;;5071460;28;20032;-74
2022/01/04 02:50:08;;;;;;;108.70;24.83;;;7.80;99.90;;;;;;5095906;28;20068;-69
2022/01/04 02:52:34;;;;;;;101.45;24.80;;;7.70;99.90;;;;;;5099321;28;20127;-69
2022/01/04 02:55:02;;;;;;;114.75;25.63;;;7.70;99.90;;;;;;5089957;28;20594;-70
2022/01/04 02:57:27;;;;;;;112.18;26.80;;;7.70;99.90;;;;;;5091512;28;20142;-71
2022/01/04 02:59:53;;;;;;;101.05;25.05;;;7.80;99.90;;;;;;5090157;28;20161;-73
2022/01/04 03:02:18;;;;;;;104.78;23.30;;;7.80;99.90;;;;;;5093140;28;20395;-70
2022/01/04 03:04:44;;;;;;;103.65;24.92;;;7.80;99.90;;;;;;5094267;28;20047;-70
2022/01/04 03:07:10;;;;;;;98.53;23.77;;;7.80;99.90;;;;;;5088620;28;20036;-71
2022/01/04 03:09:35;;;;;;;121.55;25.55;;;7.80;99.90;;;;;;5098130;28;20038;-69
2022/01/04 03:12:01;;;;;;;105.10;25.20;;;7.80;99.90;;;;;;5100587;28;20039;-71
2022/01/04 03:14:26;;;;;;;111.80;25.92;;;7.80;99.90;;;;;;5090862;28;20233;-71
2022/01/04 03:16:52;;;;;;;103.43;25.08;;;7.90;99.90;;;;;;5086644;28;20148;-71
2022/01/04 03:19:18;;;;;;;105.85;24.60;;;7.90;99.90;;;;;;5088102;28;20576;-71
2022/01/04 03:21:44;;;;;;;101.90;25.33;;;7.90;99.90;;;;;;5093793;28;20156;-71
2022/01/04 03:24:12;;;;;;;105.50;25.45;;;7.90;99.90;;;;;;5079064;28;20024;-70
2022/01/04 03:26:38;;;;;;;111.90;25.48;;;7.90;99.90;;;;;;5085121;28;20581;-70
2022/01/04 03:29:06;;;;;;;112.90;24.85;;;7.90;99.90;;;;;;5086587;28;20408;-72
2022/01/04 03:31:33;;;;;;;109.57;24.75;;;8.00;99.90;;;;;;5086401;28;20413;-71
2022/01/04 03:33:58;;;;;;;99.90;24.80;;;8.00;99.90;;;;;;5088926;28;20044;-70
2022/01/04 03:36:24;;;;;;;107.72;25.73;;;8.00;99.90;;;;;;5088802;28;20088;-70
2022/01/04 03:38:52;;;;;;;114.40;26.55;;;8.00;99.90;;;;;;5068435;28;20044;-72
2022/01/04 03:41:19;;;;;;;109.32;25.50;;;7.90;99.90;;;;;;5094096;28;20076;-73
2022/01/04 03:43:44;;;;;;;100.85;25.15;;;8.00;99.90;;;;;;5081821;28;20032;-73
2022/01/04 03:46:10;;;;;;;97.38;25.38;;;7.90;99.90;;;;;;5096286;28;20037;-72
2022/01/04 03:48:37;;;;;;;101.90;25.15;;;7.90;99.90;;;;;;5086710;28;20506;-73
2022/01/04 03:51:03;;;;;;;97.65;23.45;;;8.00;99.90;;;;;;5092583;28;20040;-71
2022/01/04 03:53:29;;;;;;;97.82;24.30;;;8.00;99.90;;;;;;5088011;28;20040;-70
2022/01/04 03:55:55;;;;;;;100.75;24.20;;;8.00;99.90;;;;;;5084067;28;20036;-72
2022/01/04 03:58:20;;;;;;;113.03;26.70;;;7.90;99.90;;;;;;5090061;28;20047;-71
2022/01/04 04:00:46;;;;;;;94.72;24.13;;;7.90;99.90;;;;;;5080090;28;20089;-71
2022/01/04 04:03:11;;;;;;;102.22;25.13;;;7.90;99.90;;;;;;5102583;28;20390;-70
2022/01/04 04:05:37;;;;;;;101.63;24.63;;;7.90;99.90;;;;;;5086654;28;20036;-71
2022/01/04 04:08:02;;;;;;;107.25;25.55;;;8.00;99.90;;;;;;5089420;28;20063;-71
2022/01/04 04:10:28;;;;;;;97.93;24.52;;;8.00;99.90;;;;;;5089553;28;20041;-69
2022/01/04 04:12:53;;;;;;;105.13;26.17;;;8.00;99.90;;;;;;5085063;28;20035;-74
2022/01/04 04:15:19;;;;;;;102.47;26.20;;;8.00;99.90;;;;;;5091133;28;20105;-71
2022/01/04 04:17:46;;;;;;;104.20;27.55;;;8.00;99.90;;;;;;5094579;28;20078;-70
2022/01/04 04:20:12;;;;;;;118.00;29.23;;;8.00;99.90;;;;;;5070312;28;20449;-71
2022/01/04 04:22:37;;;;;;;113.82;26.90;;;8.00;99.90;;;;;;5087682;28;20116;-72
2022/01/04 04:25:03;;;;;;;108.70;27.23;;;8.00;99.90;;;;;;5088936;28;20122;-72
2022/01/04 04:27:28;;;;;;;89.47;25.02;;;8.00;99.90;;;;;;5084971;28;20059;-71
2022/01/04 04:29:54;;;;;;;100.22;25.55;;;8.00;99.90;;;;;;5085841;28;20123;-71
2022/01/04 04:32:19;;;;;;;83.32;23.45;;;7.90;99.90;;;;;;5085364;28;20036;-72
2022/01/04 04:34:45;;;;;;;86.38;24.38;;;7.90;99.90;;;;;;5087975;28;20035;-71
2022/01/04 04:37:10;;;;;;;103.30;24.58;;;7.90;99.90;;;;;;5098477;28;20047;-73
2022/01/04 04:39:36;;;;;;;93.20;24.13;;;7.90;99.90;;;;;;5095929;28;20047;-71
2022/01/04 04:42:02;;;;;;;81.88;21.83;;;7.90;99.90;;;;;;5089341;28;20478;-70
2022/01/04 04:44:28;;;;;;;83.15;22.42;;;7.90;99.90;;;;;;5089580;28;20032;-72
2022/01/04 04:46:53;;;;;;;104.82;23.50;;;7.90;99.90;;;;;;5093750;28;20055;-72
2022/01/04 04:49:19;;;;;;;98.03;25.23;;;7.80;99.90;;;;;;5087553;28;20039;-69
2022/01/04 04:51:44;;;;;;;92.32;23.83;;;7.80;99.90;;;;;;5087287;28;20032;-71
2022/01/04 04:54:10;;;;;;;103.80;27.63;;;7.80;99.90;;;;;;5091485;28;20119;-69
2022/01/04 04:56:38;;;;;;;105.13;26.00;;;7.90;99.90;;;;;;5093441;28;20084;-71
2022/01/04 04:59:05;;;;;;;104.88;27.67;;;7.90;99.90;;;;;;5087573;28;20127;-73
2022/01/04 05:01:30;;;;;;;115.32;30.55;;;7.90;99.90;;;;;;5087715;28;20044;-73
2022/01/04 05:03:56;;;;;;;115.15;29.75;;;7.90;99.90;;;;;;5091437;28;20099;-71
2022/01/04 05:06:21;;;;;;;112.47;30.27;;;7.90;99.90;;;;;;5083348;28;20400;-71
2022/01/04 05:08:47;;;;;;;107.57;29.88;;;7.90;99.90;;;;;;5091272;28;20450;-74
2022/01/04 05:11:12;;;;;;;108.03;27.58;;;7.90;99.90;;;;;;5097959;28;20398;-71
2022/01/04 05:13:38;;;;;;;98.85;26.25;;;7.90;99.90;;;;;;5091654;28;20074;-73
2022/01/04 05:16:04;;;;;;;103.43;26.40;;;7.90;99.90;;;;;;5091376;28;20039;-71
2022/01/04 05:18:29;;;;;;;104.70;25.50;;;7.90;99.90;;;;;;5084159;28;20086;-72
2022/01/04 05:20:55;;;;;;;103.03;25.80;;;7.90;99.90;;;;;;5084630;28;20447;-73
2022/01/04 05:23:20;;;;;;;103.43;25.98;;;7.80;99.90;;;;;;5086619;28;20035;-72
2022/01/04 05:25:46;;;;;;;121.22;27.70;;;7.80;99.90;;;;;;5088159;28;20044;-71
2022/01/04 05:28:12;;;;;;;114.45;27.02;;;7.80;99.90;;;;;;5087564;28;20032;-71
2022/01/04 05:30:37;;;;;;;111.28;27.63;;;7.80;99.90;;;;;;5087950;28;20486;-70
2022/01/04 05:33:03;;;;;;;108.03;26.92;;;7.80;99.90;;;;;;5091050;28;20029;-70
2022/01/04 05:35:28;;;;;;;109.22;27.02;;;7.80;99.90;;;;;;5065482;28;20372;-73
2022/01/04 05:37:54;;;;;;;107.07;28.13;;;7.80;99.90;;;;;;5087834;28;20044;-71
2022/01/04 05:40:19;;;;;;;112.78;28.13;;;7.80;99.90;;;;;;5094630;28;20119;-70
2022/01/04 05:42:45;;;;;;;115.15;28.00;;;7.90;99.90;;;;;;5092289;28;20487;-73
2022/01/04 05:45:11;;;;;;;110.10;26.30;;;7.90;99.90;;;;;;5090441;28;20483;-72
2022/01/04 05:47:36;;;;;;;113.10;27.48;;;7.90;99.90;;;;;;5089577;28;20044;-73
2022/01/04 05:50:05;;;;;;;113.03;28.60;;;7.90;99.90;;;;;;5090685;28;20036;-74
2022/01/04 05:52:31;;;;;;;105.28;27.25;;;7.90;99.90;;;;;;5093395;28;20259;-70
2022/01/04 05:54:57;;;;;;;116.28;29.63;;;7.90;99.90;;;;;;5092768;28;20048;-70
2022/01/04 05:57:22;;;;;;;116.35;28.70;;;7.90;99.90;;;;;;5093259;28;20051;-69
2022/01/04 05:59:48;;;;;;;120.30;30.13;;;7.90;99.90;;;;;;5087755;28;20043;-75
2022/01/04 06:02:13;;;;;;;115.47;28.35;;;7.90;99.90;;;;;;5089104;28;20097;-71
2022/01/04 06:04:39;;;;;;;126.68;29.83;;;7.90;99.90;;;;;;5087323;28;20615;-71
2022/01/04 06:07:05;;;;;;;117.13;29.55;;;7.90;99.90;;;;;;5099042;28;20035;-70
2022/01/04 06:09:40;;;;;;;115.97;29.48;;;7.90;99.90;;;;;;5101011;28;20118;-71
2022/01/04 06:14:50;;;;;;;122.90;30.95;;;7.90;99.90;;;;;;5090232;28;20090;-74
2022/01/04 06:14:52;;;;;;;118.32;28.98;;;7.90;99.90;;;;;;5105151;28;20089;-72
2022/01/04 06:17:20;;;;;;;123.32;30.83;;;7.80;99.90;;;;;;5088911;28;20028;-73
2022/01/04 06:19:46;;;;;;;135.23;30.80;;;7.90;99.90;;;;;;5099170;28;20513;-74
2022/01/04 06:22:11;;;;;;;127.25;32.58;;;7.80;99.90;;;;;;5089504;28;20071;-72
2022/01/04 06:24:37;;;;;;;121.45;29.02;;;7.80;99.90;;;;;;5104078;28;20036;-72
2022/01/04 06:27:10;;;;;;;135.05;33.30;;;7.80;99.90;;;;;;5097697;28;20032;-71
2022/01/04 06:29:38;;;;;;;115.55;31.75;;;7.80;99.90;;;;;;5084501;28;20032;-71
2022/01/04 06:32:05;;;;;;;137.93;33.38;;;7.80;99.90;;;;;;5088235;28;20043;-73
2022/01/04 06:34:31;;;;;;;145.15;34.40;;;7.80;99.90;;;;;;5089311;28;20043;-73
2022/01/04 06:36:56;;;;;;;138.07;35.20;;;7.80;99.90;;;;;;5089211;28;20040;-70
2022/01/04 06:39:22;;;;;;;129.98;33.85;;;7.80;99.90;;;;;;5088070;28;20231;-71
2022/01/04 06:41:47;;;;;;;146.90;35.15;;;7.80;99.90;;;;;;5089377;28;20501;-70
2022/01/04 06:44:13;;;;;;;133.63;32.97;;;7.90;99.90;;;;;;5105424;28;20039;-73
2022/01/04 06:46:41;;;;;;;130.80;33.67;;;7.80;99.90;;;;;;5085787;28;20051;-71
2022/01/04 06:49:07;;;;;;;134.27;33.67;;;7.90;99.90;;;;;;5089214;28;20046;-73
2022/01/04 06:51:34;;;;;;;147.43;35.17;;;7.90;99.90;;;;;;5086077;28;20042;-72
2022/01/04 06:53:59;;;;;;;144.50;34.35;;;7.80;99.90;;;;;;5089885;28;20115;-74
2022/01/04 06:56:25;;;;;;;139.13;32.92;;;7.80;99.90;;;;;;5103397;28;20553;-72
2022/01/04 06:58:50;;;;;;;130.27;32.47;;;7.90;99.90;;;;;;5089870;28;20036;-69
2022/01/04 07:01:16;;;;;;;150.75;36.15;;;7.90;99.90;;;;;;5103596;28;20044;-68
2022/01/04 07:03:42;;;;;;;132.00;32.55;;;7.90;99.90;;;;;;5094026;28;20043;-75
2022/01/04 07:06:07;;;;;;;144.95;36.58;;;7.90;99.90;;;;;;5098198;28;20085;-73
2022/01/04 07:08:33;;;;;;;147.80;34.20;;;7.90;99.90;;;;;;5083963;28;20032;-72
2022/01/04 07:10:58;;;;;;;133.77;31.92;;;7.90;99.90;;;;;;5103225;28;20050;-70
2022/01/04 07:13:24;;;;;;;140.90;34.08;;;7.90;99.90;;;;;;5092055;28;20722;-70
2022/01/04 07:15:50;;;;;;;142.68;34.22;;;7.90;99.90;;;;;;5088533;28;20048;-72
2022/01/04 07:18:15;;;;;;;131.13;34.45;;;7.90;99.90;;;;;;5101709;28;20301;-72
2022/01/04 07:20:41;;;;;;;150.45;39.03;;;8.00;99.90;;;;;;5096500;28;20032;-71
2022/01/04 07:23:06;;;;;;;151.77;36.13;;;8.00;99.90;;;;;;5089004;28;20140;-69
2022/01/04 07:25:32;;;;;;;154.65;36.08;;;7.90;99.90;;;;;;5108291;28;20043;-72
2022/01/04 07:27:58;;;;;;;146.25;33.22;;;7.90;99.90;;;;;;5096230;28;20047;-69
2022/01/04 07:30:24;;;;;;;165.20;40.08;;;7.90;99.90;;;;;;5088343;28;20044;-73
2022/01/04 07:32:49;;;;;;;165.48;38.10;;;7.90;99.90;;;;;;5102882;28;20029;-74
2022/01/04 07:35:15;;;;;;;163.75;37.90;;;7.90;99.90;;;;;;5102611;28;20040;-75
2022/01/04 07:37:40;;;;;;;154.20;36.47;;;7.90;99.90;;;;;;5083411;28;20122;-72
2022/01/04 07:40:07;;;;;;;161.02;34.67;;;7.90;99.90;;;;;;5086832;28;20125;-71
2022/01/04 07:42:33;;;;;;;152.30;34.97;;;7.80;99.90;;;;;;5089426;28;20089;-71
2022/01/04 07:44:58;;;;;;;155.38;35.35;;;7.90;99.90;;;;;;5096749;28;20044;-69
2022/01/04 07:47:24;;;;;;;147.52;34.50;;;7.80;99.90;;;;;;5085545;28;20075;-70
2022/01/04 07:49:49;;;;;;;137.52;33.47;;;7.80;99.90;;;;;;5105732;28;20045;-72
2022/01/04 07:52:16;;;;;;;150.20;34.67;;;7.90;99.90;;;;;;5084350;28;20402;-71
2022/01/04 07:54:43;;;;;;;151.45;33.85;;;7.80;99.90;;;;;;5070549;28;20090;-69
2022/01/04 07:57:09;;;;;;;152.18;35.28;;;7.80;99.90;;;;;;5086769;28;20047;-71
2022/01/04 07:59:34;;;;;;;152.07;34.85;;;7.80;99.90;;;;;;5089824;28;20036;-72
2022/01/04 08:02:00;;;;;;;124.65;32.20;;;7.80;99.90;;;;;;5097444;28;20031;-71
2022/01/04 08:04:26;;;;;;;135.55;32.35;;;7.80;99.90;;;;;;5097594;28;20624;-69
2022/01/04 08:06:51;;;;;;;153.73;36.28;;;7.70;99.90;;;;;;5090322;28;20051;-71
2022/01/04 08:09:17;;;;;;;136.88;32.42;;;7.70;99.90;;;;;;5096636;28;20036;-69
2022/01/04 08:11:43;;;;;;;123.07;29.45;;;7.80;99.90;;;;;;5101058;28;20080;-72
2022/01/04 08:14:08;;;;;;;129.18;29.80;;;7.70;99.90;;;;;;5089098;28;20131;-70
2022/01/04 08:16:34;;;;;;;127.40;29.52;;;7.70;99.90;;;;;;5088530;28;20067;-69
2022/01/04 08:19:00;;;;;;;129.35;28.73;;;7.70;99.90;;;;;;5087178;28;20123;-69
2022/01/04 08:21:26;;;;;;;135.45;32.72;;;7.70;99.90;;;;;;5084556;28;20478;-71
2022/01/04 08:23:52;;;;;;;143.90;32.50;;;7.70;99.90;;;;;;5091905;28;20054;-68
2022/01/04 08:26:18;;;;;;;141.20;32.85;;;7.70;99.90;;;;;;5107006;28;20066;-67
2022/01/04 08:28:44;;;;;;;150.43;35.55;;;7.60;99.90;;;;;;5076482;28;20153;-66
2022/01/04 08:31:11;;;;;;;136.55;31.77;;;7.60;99.90;;;;;;5078641;28;20069;-67
2022/01/04 08:33:37;;;;;;;148.02;30.90;;;7.70;99.90;;;;;;5093927;28;20036;-67
2022/01/04 08:36:03;;;;;;;141.20;34.72;;;7.70;99.90;;;;;;5095361;28;20043;-69
2022/01/04 08:38:28;;;;;;;146.45;35.53;;;7.70;99.90;;;;;;5087875;28;20482;-68
2022/01/04 08:40:54;;;;;;;143.35;32.35;;;7.70;99.90;;;;;;5094085;28;20494;-68
2022/01/04 08:43:19;;;;;;;157.73;37.30;;;7.70;99.90;;;;;;5087194;28;20040;-69
2022/01/04 08:45:45;;;;;;;153.55;34.38;;;7.70;99.90;;;;;;5089339;28;20040;-68
2022/01/04 08:48:11;;;;;;;152.93;32.85;;;7.70;99.90;;;;;;5086219;28;20044;-68
2022/01/04 08:50:36;;;;;;;147.15;34.20;;;7.70;99.90;;;;;;5088366;28;20272;-68
2022/01/04 08:53:03;;;;;;;162.02;37.42;;;7.70;99.90;;;;;;5083750;28;20045;-68
2022/01/04 08:55:29;;;;;;;159.05;35.45;;;7.70;99.90;;;;;;5071832;28;20090;-68
2022/01/04 08:57:54;;;;;;;148.00;34.45;;;7.70;99.90;;;;;;5084868;28;20506;-69
2022/01/04 09:00:20;;;;;;;178.85;38.30;;;7.80;99.90;;;;;;5086506;28;20048;-68
2022/01/04 09:02:46;;;;;;;155.05;33.85;;;7.80;99.90;;;;;;5088122;28;20047;-67
2022/01/04 09:05:12;;;;;;;167.63;35.70;;;7.80;99.90;;;;;;5086167;28;20434;-68
2022/01/04 09:07:38;;;;;;;192.20;41.47;;;7.80;99.90;;;;;;5089889;28;20108;-69
2022/01/04 09:10:05;;;;;;;195.02;42.53;;;7.70;99.90;;;;;;5098289;28;20370;-69
2022/01/04 09:12:57;;;;;;;129.10;30.40;;;7.80;99.90;;;;;;5081598;28;20040;-69
2022/01/04 09:20:50;;;;;;;88.15;21.38;;;7.80;99.90;;;;;;5087483;28;20535;-69
2022/01/04 09:23:18;;;;;;;68.45;17.70;;;7.80;99.90;;;;;;5081832;28;20044;-67
2022/01/04 09:25:45;;;;;;;68.70;19.42;;;7.70;99.90;;;;;;5086045;28;20446;-67
2022/01/04 09:28:11;;;;;;;79.13;21.15;;;7.70;99.90;;;;;;5067500;28;20391;-70
2022/01/04 09:30:37;;;;;;;69.85;20.27;;;7.70;99.90;;;;;;5085455;28;20040;-68
2022/01/04 09:33:05;;;;;;;45.33;13.25;;;7.60;99.90;;;;;;5083105;28;20032;-68
2022/01/04 09:35:31;;;;;;;41.72;11.70;;;7.50;99.90;;;;;;5085805;28;20111;-68
2022/01/04 09:37:57;;;;;;;34.78;9.73;;;7.50;99.90;;;;;;5109842;28;20051;-67
2022/01/04 09:40:23;;;;;;;36.00;10.00;;;7.50;99.90;;;;;;5083308;28;20669;-68
2022/01/04 09:42:49;;;;;;;29.05;7.25;;;7.40;99.90;;;;;;5088388;28;20044;-68
2022/01/04 09:45:15;;;;;;;28.13;7.28;;;7.40;99.90;;;;;;5081884;28;20044;-68
2022/01/04 09:47:40;;;;;;;35.42;6.70;;;7.40;99.90;;;;;;5077696;28;20036;-66
2022/01/04 09:50:10;;;;;;;44.78;8.25;;;7.40;99.90;;;;;;5077309;28;20055;-68
2022/01/04 09:52:43;;;;;;;29.38;6.28;;;7.30;99.90;;;;;;5080956;28;20067;-67
2022/01/04 09:55:12;;;;;;;24.48;6.38;;;7.30;99.90;;;;;;5067545;28;20059;-67
2022/01/04 09:57:41;;;;;;;28.67;5.78;;;7.30;99.90;;;;;;5074740;28;20118;-67
2022/01/04 10:00:08;;;;;;;24.95;4.53;;;7.40;99.90;;;;;;5099049;28;20131;-68
2022/01/04 10:02:35;;;;;;;20.42;5.22;;;7.30;99.90;;;;;;5082585;28;20051;-71
2022/01/04 10:05:29;;;;;;;22.48;4.30;;;7.30;99.90;;;;;;5077670;28;20092;-68
2022/01/04 10:08:05;;;;;;;16.52;3.08;;;7.30;99.90;;;;;;5081938;28;20044;-69
2022/01/04 10:10:32;;;;;;;17.70;3.80;;;7.40;99.90;;;;;;5072890;28;20051;-67
2022/01/04 10:13:01;;;;;;;10.48;2.58;;;7.40;99.90;;;;;;5089229;28;20044;-69
2022/01/04 10:15:43;;;;;;;13.40;3.30;;;7.40;99.90;;;;;;5084551;28;20040;-68
2022/01/04 10:18:16;;;;;;;15.95;3.38;;;7.40;99.90;;;;;;5085418;28;20071;-68
2022/01/04 10:21:02;;;;;;;10.43;3.08;;;7.40;99.90;;;;;;5090757;28;20047;-69
2022/01/04 10:23:29;;;;;;;11.25;3.08;;;7.50;99.90;;;;;;5085400;28;20083;-68
2022/01/04 10:26:06;;;;;;;25.20;3.75;;;7.50;99.90;;;;;;5088982;28;20050;-67
2022/01/04 10:28:36;;;;;;;18.63;3.28;;;7.50;99.90;;;;;;5082967;28;20135;-68
2022/01/04 10:31:07;;;;;;;16.52;3.90;;;7.50;99.90;;;;;;5100647;28;20036;-68
2022/01/04 10:33:34;;;;;;;16.60;2.50;;;7.60;99.90;;;;;;5087057;28;20458;-66
2022/01/04 10:36:01;;;;;;;14.85;4.32;;;7.50;99.90;;;;;;5086310;28;20040;-70
2022/01/04 10:38:36;;;;;;;12.10;2.28;;;7.60;99.90;;;;;;5085104;28;20052;-71
2022/01/04 10:41:09;;;;;;;10.38;2.15;;;7.60;99.90;;;;;;5088802;28;20468;-70
2022/01/04 10:43:43;;;;;;;10.15;2.47;;;7.50;99.90;;;;;;5089361;28;20028;-70
2022/01/04 10:46:10;;;;;;;9.80;2.53;;;7.40;99.90;;;;;;5070721;28;20064;-70
2022/01/04 10:48:42;;;;;;;11.77;2.00;;;7.40;99.90;;;;;;5086318;28;20028;-69
2022/01/04 10:51:11;;;;;;;8.18;1.95;;;7.30;99.90;;;;;;5087410;28;20127;-68
2022/01/04 10:53:40;;;;;;;16.88;2.67;;;7.30;99.90;;;;;;5090168;28;20284;-71
2022/01/04 10:56:13;;;;;;;12.65;2.33;;;7.20;99.90;;;;;;5086906;28;20082;-69
2022/01/04 10:58:45;;;;;;;11.13;1.85;;;7.20;99.90;;;;;;5089539;28;20032;-69
2022/01/04 11:01:13;;;;;;;11.60;1.88;;;7.20;99.90;;;;;;5088580;28;20043;-71
2022/01/04 11:03:47;;;;;;;7.97;2.17;;;7.20;99.90;;;;;;5086576;28;20398;-70
2022/01/04 11:06:22;;;;;;;5.82;1.42;;;7.10;99.90;;;;;;5083625;28;20055;-68
2022/01/04 11:08:48;;;;;;;7.40;1.75;;;7.10;99.90;;;;;;5092888;28;20047;-70
2022/01/04 11:11:13;;;;;;;9.98;2.10;;;7.10;99.90;;;;;;5086656;28;20036;-66
2022/01/04 11:13:39;;;;;;;17.35;2.15;;;7.10;99.90;;;;;;5076199;28;20047;-69
2022/01/04 11:16:06;;;;;;;5.28;1.52;;;7.10;99.90;;;;;;5086225;28;20174;-69
2022/01/04 11:18:33;;;;;;;4.55;1.52;;;7.10;99.90;;;;;;5089358;28;20111;-67
2022/01/04 11:21:00;;;;;;;8.38;2.00;;;7.10;99.90;;;;;;5089467;28;20040;-68
2022/01/04 11:23:28;;;;;;;5.28;1.40;;;7.00;99.90;;;;;;5074214;28;20044;-68
2022/01/04 11:25:55;;;;;;;14.52;2.30;;;7.00;99.90;;;;;;5086762;28;20435;-71
2022/01/04 11:28:22;;;;;;;12.10;2.10;;;7.00;99.90;;;;;;5092204;28;20036;-67
2022/01/04 11:31:13;;;;;;;9.27;2.60;;;6.90;99.90;;;;;;5094558;28;20470;-68
2022/01/04 11:34:06;;;;;;;13.88;1.85;;;6.90;99.90;;;;;;5087793;28;20050;-67
2022/01/04 11:36:40;;;;;;;11.60;2.53;;;6.90;99.90;;;;;;5083222;28;20113;-70
2022/01/04 11:39:35;;;;;;;9.52;2.65;;;6.90;99.90;;;;;;5085230;28;20043;-71
2022/01/04 11:42:09;;;;;;;12.63;2.80;;;6.80;99.90;;;;;;5103191;27;20348;-70
2022/01/04 11:44:47;;;;;;;7.72;2.40;;;6.80;99.90;;;;;;5087159;28;20044;-72
2022/01/04 11:47:16;;;;;;;3.88;1.00;;;6.70;99.90;;;;;;5088575;28;20040;-69
2022/01/04 11:50:06;;;;;;;3.95;0.90;;;6.50;99.90;;;;;;5087762;28;20467;-69
2022/01/04 11:52:40;;;;;;;4.82;0.50;;;6.30;99.90;;;;;;5081500;28;20032;-67
2022/01/04 11:55:31;;;;;;;3.63;1.02;;;6.10;99.90;;;;;;5089223;28;20488;-68
2022/01/04 11:58:01;;;;;;;4.55;1.00;;;6.10;99.90;;;;;;5098262;27;20373;-69
2022/01/04 12:00:32;;;;;;;3.67;0.80;;;6.10;99.90;;;;;;5090897;28;20440;-72
2022/01/04 12:03:19;;;;;;;5.60;0.90;;;6.00;99.90;;;;;;5085634;28;20482;-72
2022/01/04 12:06:01;;;;;;;10.18;1.55;;;6.10;99.90;;;;;;5095607;28;20039;-71
2022/01/04 12:08:34;;;;;;;7.47;0.85;;;6.10;99.90;;;;;;5102402;28;20036;-69
2022/01/04 12:11:00;;;;;;;6.43;0.77;;;6.10;99.90;;;;;;5099306;28;20490;-70
2022/01/04 12:13:45;;;;;;;3.38;1.52;;;6.10;99.90;;;;;;5103737;28;20042;-72
2022/01/04 12:16:11;;;;;;;4.25;0.75;;;6.00;99.90;;;;;;5090930;28;20138;-71
2022/01/04 12:18:37;;;;;;;8.93;1.25;;;6.00;99.90;;;;;;5090858;28;20048;-67
2022/01/04 12:21:15;;;;;;;1.48;0.60;;;6.00;99.90;;;;;;5084937;28;20493;-68
2022/01/04 12:23:45;;;;;;;4.10;0.75;;;5.90;99.90;;;;;;5085922;28;20044;-70
2022/01/04 12:26:16;;;;;;;5.07;0.93;;;5.70;99.90;;;;;;5089612;28;20044;-69
2022/01/04 12:28:55;;;;;;;3.60;0.80;;;5.70;99.90;;;;;;5088427;28;20035;-72
2022/01/04 12:31:23;;;;;;;3.33;0.60;;;5.70;99.90;;;;;;5082043;28;20090;-72
2022/01/04 12:33:51;;;;;;;2.88;0.65;;;5.70;99.90;;;;;;5087610;28;20051;-68
2022/01/04 12:36:29;;;;;;;7.60;0.70;;;5.80;99.90;;;;;;5093712;28;20054;-68
2022/01/04 12:39:04;;;;;;;8.52;0.98;;;5.80;99.90;;;;;;5082019;28;20059;-71
2022/01/04 12:41:30;;;;;;;7.32;0.90;;;5.80;99.90;;;;;;5103764;28;20398;-68
2022/01/04 12:43:57;;;;;;;5.85;0.80;;;5.80;99.90;;;;;;5090432;28;20032;-70
2022/01/04 12:46:30;;;;;;;2.88;0.55;;;5.80;99.90;;;;;;5083517;28;20047;-72